sensor_id;sensor_type;location;lat;lon;timestamp;P1;durP1;ratioP1;P2;durP2;ratioP2
16640;SDS011;8434;47.990;7.880;2022-09-25T00:00:18;6.73;;;4.60;;
16640;SDS011;8434;47.990;7.880;2022-09-25T00:03:03;7.70;;;6.00;;
16640;SDS011;8434;47.990;7.880;2022-09-25T00:05:50;8.77;;;5.43;;
16640;SDS011;8434;47.990;7.880;2022-09-25T00:08:35;6.97;;;5.17;;
16640;SDS011;8434;47.990;7.880;2022-09-25T00:11:21;5.20;;;4.33;;
16640;SDS011;8434;47.990;7.880;2022-09-25T00:14:06;5.33;;;4.67;;
16640;SDS011;8434;47.990;7.880;2022-09-25T00:16:51;6.33;;;4.67;;
16640;SDS011;8434;47.990;7.880;2022-09-25T00:19:36;5.23;;;4.17;;
16640;SDS011;8434;47.990;7.880;2022-09-25T00:22:34;4.67;;;3.90;;
16640;SDS011;8434;47.990;7.880;2022-09-25T00:25:18;4.60;;;4.20;;
16640;SDS011;8434;47.990;7.880;2022-09-25T00:28:04;5.10;;;4.07;;
16640;SDS011;8434;47.990;7.880;2022-09-25T00:30:48;5.97;;;4.50;;
16640;SDS011;8434;47.990;7.880;2022-09-25T00:33:34;5.47;;;4.30;;
16640;SDS011;8434;47.990;7.880;2022-09-25T00:36:19;4.73;;;4.17;;
16640;SDS011;8434;47.990;7.880;2022-09-25T00:39:06;5.30;;;4.80;;
16640;SDS011;8434;47.990;7.880;2022-09-25T00:41:51;4.97;;;4.47;;
16640;SDS011;8434;47.990;7.880;2022-09-25T00:44:50;4.97;;;4.47;;
16640;SDS011;8434;47.990;7.880;2022-09-25T00:47:50;8.67;;;4.50;;
16640;SDS011;8434;47.990;7.880;2022-09-25T00:50:36;5.23;;;3.87;;
16640;SDS011;8434;47.990;7.880;2022-09-25T00:53:23;5.73;;;4.30;;
16640;SDS011;8434;47.990;7.880;2022-09-25T00:56:10;6.13;;;4.30;;
16640;SDS011;8434;47.990;7.880;2022-09-25T00:58:57;6.10;;;4.07;;
16640;SDS011;8434;47.990;7.880;2022-09-25T01:01:42;5.20;;;4.20;;
16640;SDS011;8434;47.990;7.880;2022-09-25T01:04:27;4.60;;;3.73;;
16640;SDS011;8434;47.990;7.880;2022-09-25T01:07:14;5.87;;;4.30;;
16640;SDS011;8434;47.990;7.880;2022-09-25T01:09:59;4.67;;;3.67;;
16640;SDS011;8434;47.990;7.880;2022-09-25T01:12:46;5.07;;;4.30;;
16640;SDS011;8434;47.990;7.880;2022-09-25T01:15:35;5.30;;;4.00;;
16640;SDS011;8434;47.990;7.880;2022-09-25T01:18:26;5.20;;;4.40;;
16640;SDS011;8434;47.990;7.880;2022-09-25T01:21:17;8.50;;;5.17;;
16640;SDS011;8434;47.990;7.880;2022-09-25T01:30:19;5.27;;;4.67;;
16640;SDS011;8434;47.990;7.880;2022-09-25T01:33:05;5.07;;;4.50;;
16640;SDS011;8434;47.990;7.880;2022-09-25T01:35:54;5.73;;;4.70;;
16640;SDS011;8434;47.990;7.880;2022-09-25T01:38:42;4.20;;;3.80;;
16640;SDS011;8434;47.990;7.880;2022-09-25T01:41:29;5.43;;;3.97;;
16640;SDS011;8434;47.990;7.880;2022-09-25T01:44:18;4.90;;;3.77;;
16640;SDS011;8434;47.990;7.880;2022-09-25T01:47:06;4.47;;;4.07;;
16640;SDS011;8434;47.990;7.880;2022-09-25T01:49:54;5.37;;;4.13;;
16640;SDS011;8434;47.990;7.880;2022-09-25T01:52:40;6.10;;;4.00;;
16640;SDS011;8434;47.990;7.880;2022-09-25T01:55:29;5.37;;;4.83;;
16640;SDS011;8434;47.990;7.880;2022-09-25T01:58:16;3.93;;;3.53;;
16640;SDS011;8434;47.990;7.880;2022-09-25T02:01:03;4.70;;;4.20;;
16640;SDS011;8434;47.990;7.880;2022-09-25T02:03:52;9.50;;;4.60;;
16640;SDS011;8434;47.990;7.880;2022-09-25T02:06:39;4.67;;;4.23;;
16640;SDS011;8434;47.990;7.880;2022-09-25T02:09:26;5.83;;;4.30;;
16640;SDS011;8434;47.990;7.880;2022-09-25T02:12:14;5.67;;;4.27;;
16640;SDS011;8434;47.990;7.880;2022-09-25T02:15:02;4.80;;;3.67;;
16640;SDS011;8434;47.990;7.880;2022-09-25T02:17:51;5.20;;;4.03;;
16640;SDS011;8434;47.990;7.880;2022-09-25T02:20:58;4.93;;;4.07;;
16640;SDS011;8434;47.990;7.880;2022-09-25T02:23:47;5.07;;;4.13;;
16640;SDS011;8434;47.990;7.880;2022-09-25T02:26:33;4.80;;;3.73;;
16640;SDS011;8434;47.990;7.880;2022-09-25T02:29:18;4.83;;;4.13;;
16640;SDS011;8434;47.990;7.880;2022-09-25T02:32:04;4.30;;;3.50;;
16640;SDS011;8434;47.990;7.880;2022-09-25T02:34:51;4.47;;;3.57;;
16640;SDS011;8434;47.990;7.880;2022-09-25T02:37:38;4.63;;;3.37;;
16640;SDS011;8434;47.990;7.880;2022-09-25T02:40:24;5.80;;;3.90;;
16640;SDS011;8434;47.990;7.880;2022-09-25T02:43:15;6.60;;;4.80;;
16640;SDS011;8434;47.990;7.880;2022-09-25T02:46:04;5.80;;;3.77;;
16640;SDS011;8434;47.990;7.880;2022-09-25T02:48:51;3.87;;;3.47;;
16640;SDS011;8434;47.990;7.880;2022-09-25T02:51:39;4.73;;;3.77;;
16640;SDS011;8434;47.990;7.880;2022-09-25T02:54:30;4.07;;;3.67;;
16640;SDS011;8434;47.990;7.880;2022-09-25T02:57:18;6.23;;;3.70;;
16640;SDS011;8434;47.990;7.880;2022-09-25T03:00:05;5.53;;;3.50;;
16640;SDS011;8434;47.990;7.880;2022-09-25T03:02:51;4.30;;;3.90;;
16640;SDS011;8434;47.990;7.880;2022-09-25T03:05:39;3.83;;;3.37;;
16640;SDS011;8434;47.990;7.880;2022-09-25T03:08:25;7.20;;;3.47;;
16640;SDS011;8434;47.990;7.880;2022-09-25T03:11:25;4.10;;;3.20;;
16640;SDS011;8434;47.990;7.880;2022-09-25T03:14:11;4.07;;;3.67;;
16640;SDS011;8434;47.990;7.880;2022-09-25T03:16:55;8.13;;;3.83;;
16640;SDS011;8434;47.990;7.880;2022-09-25T03:19:41;4.37;;;3.73;;
16640;SDS011;8434;47.990;7.880;2022-09-25T03:22:26;4.23;;;3.83;;
16640;SDS011;8434;47.990;7.880;2022-09-25T03:25:11;4.03;;;3.60;;
16640;SDS011;8434;47.990;7.880;2022-09-25T03:28:00;4.37;;;3.87;;
16640;SDS011;8434;47.990;7.880;2022-09-25T03:30:53;3.93;;;3.47;;
16640;SDS011;8434;47.990;7.880;2022-09-25T03:33:39;3.87;;;3.37;;
16640;SDS011;8434;47.990;7.880;2022-09-25T03:36:26;3.93;;;3.40;;
16640;SDS011;8434;47.990;7.880;2022-09-25T03:39:11;4.17;;;3.77;;
16640;SDS011;8434;47.990;7.880;2022-09-25T03:41:57;5.03;;;3.63;;
16640;SDS011;8434;47.990;7.880;2022-09-25T03:44:43;4.07;;;3.57;;
16640;SDS011;8434;47.990;7.880;2022-09-25T03:47:28;4.40;;;4.00;;
16640;SDS011;8434;47.990;7.880;2022-09-25T03:50:13;4.87;;;3.40;;
16640;SDS011;8434;47.990;7.880;2022-09-25T03:52:58;4.07;;;3.43;;
16640;SDS011;8434;47.990;7.880;2022-09-25T03:55:43;4.30;;;3.90;;
16640;SDS011;8434;47.990;7.880;2022-09-25T03:58:31;4.63;;;3.50;;
16640;SDS011;8434;47.990;7.880;2022-09-25T04:01:17;7.53;;;4.00;;
16640;SDS011;8434;47.990;7.880;2022-09-25T04:04:04;6.50;;;3.10;;
16640;SDS011;8434;47.990;7.880;2022-09-25T04:06:49;4.90;;;3.87;;
16640;SDS011;8434;47.990;7.880;2022-09-25T04:09:33;4.57;;;3.97;;
16640;SDS011;8434;47.990;7.880;2022-09-25T04:12:18;5.87;;;3.90;;
16640;SDS011;8434;47.990;7.880;2022-09-25T04:15:04;3.97;;;3.57;;
16640;SDS011;8434;47.990;7.880;2022-09-25T04:17:50;4.13;;;3.73;;
16640;SDS011;8434;47.990;7.880;2022-09-25T04:20:36;5.80;;;3.70;;
16640;SDS011;8434;47.990;7.880;2022-09-25T04:23:21;5.67;;;3.93;;
16640;SDS011;8434;47.990;7.880;2022-09-25T04:26:06;3.43;;;3.13;;
16640;SDS011;8434;47.990;7.880;2022-09-25T04:28:52;3.57;;;3.23;;
16640;SDS011;8434;47.990;7.880;2022-09-25T04:31:37;4.13;;;2.90;;
16640;SDS011;8434;47.990;7.880;2022-09-25T04:34:23;4.23;;;3.83;;
16640;SDS011;8434;47.990;7.880;2022-09-25T04:37:07;10.60;;;4.73;;
16640;SDS011;8434;47.990;7.880;2022-09-25T04:39:53;5.77;;;3.73;;
16640;SDS011;8434;47.990;7.880;2022-09-25T04:42:38;3.80;;;3.40;;
16640;SDS011;8434;47.990;7.880;2022-09-25T04:45:26;4.33;;;3.40;;
16640;SDS011;8434;47.990;7.880;2022-09-25T04:48:11;3.90;;;3.50;;
16640;SDS011;8434;47.990;7.880;2022-09-25T04:50:57;4.13;;;3.73;;
16640;SDS011;8434;47.990;7.880;2022-09-25T04:53:42;5.43;;;4.07;;
16640;SDS011;8434;47.990;7.880;2022-09-25T04:56:27;3.90;;;3.40;;
16640;SDS011;8434;47.990;7.880;2022-09-25T04:59:12;4.03;;;3.47;;
16640;SDS011;8434;47.990;7.880;2022-09-25T05:01:59;3.70;;;3.30;;
16640;SDS011;8434;47.990;7.880;2022-09-25T05:04:44;4.27;;;3.50;;
16640;SDS011;8434;47.990;7.880;2022-09-25T05:07:30;3.20;;;2.90;;
16640;SDS011;8434;47.990;7.880;2022-09-25T05:10:15;3.60;;;3.10;;
16640;SDS011;8434;47.990;7.880;2022-09-25T05:13:01;3.97;;;3.57;;
16640;SDS011;8434;47.990;7.880;2022-09-25T05:15:46;3.70;;;3.33;;
16640;SDS011;8434;47.990;7.880;2022-09-25T05:18:31;3.50;;;3.10;;
16640;SDS011;8434;47.990;7.880;2022-09-25T05:21:15;4.53;;;3.20;;
16640;SDS011;8434;47.990;7.880;2022-09-25T05:24:02;4.23;;;3.67;;
16640;SDS011;8434;47.990;7.880;2022-09-25T05:26:47;4.73;;;3.60;;
16640;SDS011;8434;47.990;7.880;2022-09-25T05:29:32;4.20;;;3.37;;
16640;SDS011;8434;47.990;7.880;2022-09-25T05:32:17;4.07;;;3.67;;
16640;SDS011;8434;47.990;7.880;2022-09-25T05:35:02;4.20;;;3.67;;
16640;SDS011;8434;47.990;7.880;2022-09-25T05:37:48;3.53;;;3.23;;
16640;SDS011;8434;47.990;7.880;2022-09-25T05:40:35;3.43;;;3.07;;
16640;SDS011;8434;47.990;7.880;2022-09-25T05:43:21;5.03;;;3.23;;
16640;SDS011;8434;47.990;7.880;2022-09-25T05:46:08;7.20;;;3.33;;
16640;SDS011;8434;47.990;7.880;2022-09-25T05:48:53;3.73;;;2.90;;
16640;SDS011;8434;47.990;7.880;2022-09-25T05:51:38;3.77;;;3.03;;
16640;SDS011;8434;47.990;7.880;2022-09-25T05:54:23;3.33;;;2.93;;
16640;SDS011;8434;47.990;7.880;2022-09-25T05:57:09;3.27;;;2.97;;
16640;SDS011;8434;47.990;7.880;2022-09-25T05:59:54;5.30;;;2.97;;
16640;SDS011;8434;47.990;7.880;2022-09-25T06:02:39;4.40;;;3.07;;
16640;SDS011;8434;47.990;7.880;2022-09-25T06:05:24;3.37;;;2.97;;
16640;SDS011;8434;47.990;7.880;2022-09-25T06:08:09;3.83;;;3.40;;
16640;SDS011;8434;47.990;7.880;2022-09-25T06:10:54;4.50;;;3.37;;
16640;SDS011;8434;47.990;7.880;2022-09-25T06:13:40;7.57;;;3.80;;
16640;SDS011;8434;47.990;7.880;2022-09-25T06:16:28;4.07;;;3.63;;
16640;SDS011;8434;47.990;7.880;2022-09-25T06:19:13;4.37;;;3.87;;
16640;SDS011;8434;47.990;7.880;2022-09-25T06:21:58;3.47;;;3.13;;
16640;SDS011;8434;47.990;7.880;2022-09-25T06:24:43;4.73;;;3.77;;
16640;SDS011;8434;47.990;7.880;2022-09-25T06:27:28;4.10;;;3.70;;
16640;SDS011;8434;47.990;7.880;2022-09-25T06:30:15;4.13;;;3.50;;
16640;SDS011;8434;47.990;7.880;2022-09-25T06:33:02;3.90;;;3.50;;
16640;SDS011;8434;47.990;7.880;2022-09-25T06:35:49;6.17;;;4.23;;
16640;SDS011;8434;47.990;7.880;2022-09-25T06:38:34;4.57;;;3.67;;
16640;SDS011;8434;47.990;7.880;2022-09-25T06:41:19;5.97;;;4.23;;
16640;SDS011;8434;47.990;7.880;2022-09-25T06:44:04;5.80;;;4.50;;
16640;SDS011;8434;47.990;7.880;2022-09-25T06:46:50;4.80;;;4.30;;
16640;SDS011;8434;47.990;7.880;2022-09-25T06:49:37;4.23;;;3.83;;
16640;SDS011;8434;47.990;7.880;2022-09-25T06:52:22;5.50;;;4.63;;
16640;SDS011;8434;47.990;7.880;2022-09-25T06:55:07;6.93;;;5.30;;
16640;SDS011;8434;47.990;7.880;2022-09-25T06:57:52;6.23;;;4.67;;
16640;SDS011;8434;47.990;7.880;2022-09-25T07:00:37;5.50;;;4.33;;
16640;SDS011;8434;47.990;7.880;2022-09-25T07:03:23;4.63;;;4.23;;
16640;SDS011;8434;47.990;7.880;2022-09-25T07:06:26;5.13;;;4.20;;
16640;SDS011;8434;47.990;7.880;2022-09-25T07:09:11;4.90;;;4.40;;
16640;SDS011;8434;47.990;7.880;2022-09-25T07:11:56;6.37;;;4.50;;
16640;SDS011;8434;47.990;7.880;2022-09-25T07:14:41;5.93;;;4.10;;
16640;SDS011;8434;47.990;7.880;2022-09-25T07:17:29;5.17;;;4.67;;
16640;SDS011;8434;47.990;7.880;2022-09-25T07:20:15;6.23;;;4.83;;
16640;SDS011;8434;47.990;7.880;2022-09-25T07:23:00;7.10;;;5.80;;
16640;SDS011;8434;47.990;7.880;2022-09-25T07:25:47;6.93;;;6.07;;
16640;SDS011;8434;47.990;7.880;2022-09-25T07:28:32;8.37;;;6.20;;
16640;SDS011;8434;47.990;7.880;2022-09-25T07:31:18;10.90;;;7.00;;
16640;SDS011;8434;47.990;7.880;2022-09-25T07:34:03;7.90;;;6.83;;
16640;SDS011;8434;47.990;7.880;2022-09-25T07:36:52;11.83;;;6.50;;
16640;SDS011;8434;47.990;7.880;2022-09-25T07:39:37;7.07;;;6.13;;
16640;SDS011;8434;47.990;7.880;2022-09-25T07:42:22;5.77;;;4.77;;
16640;SDS011;8434;47.990;7.880;2022-09-25T07:45:08;7.27;;;5.37;;
16640;SDS011;8434;47.990;7.880;2022-09-25T07:47:54;7.07;;;6.03;;
16640;SDS011;8434;47.990;7.880;2022-09-25T07:50:39;7.37;;;5.50;;
16640;SDS011;8434;47.990;7.880;2022-09-25T07:53:26;13.00;;;8.47;;
16640;SDS011;8434;47.990;7.880;2022-09-25T07:56:11;13.40;;;8.67;;
16640;SDS011;8434;47.990;7.880;2022-09-25T07:58:56;12.33;;;7.50;;
16640;SDS011;8434;47.990;7.880;2022-09-25T08:01:41;15.00;;;8.53;;
16640;SDS011;8434;47.990;7.880;2022-09-25T08:04:26;20.83;;;11.20;;
16640;SDS011;8434;47.990;7.880;2022-09-25T08:07:11;19.27;;;10.80;;
16640;SDS011;8434;47.990;7.880;2022-09-25T08:09:57;15.37;;;9.03;;
16640;SDS011;8434;47.990;7.880;2022-09-25T08:12:42;16.73;;;9.67;;
16640;SDS011;8434;47.990;7.880;2022-09-25T08:15:27;16.67;;;9.17;;
16640;SDS011;8434;47.990;7.880;2022-09-25T08:18:12;13.27;;;7.73;;
16640;SDS011;8434;47.990;7.880;2022-09-25T08:20:59;11.93;;;7.67;;
16640;SDS011;8434;47.990;7.880;2022-09-25T08:23:47;12.53;;;8.00;;
16640;SDS011;8434;47.990;7.880;2022-09-25T08:26:33;12.27;;;7.13;;
16640;SDS011;8434;47.990;7.880;2022-09-25T08:29:19;10.93;;;7.37;;
16640;SDS011;8434;47.990;7.880;2022-09-25T08:32:04;11.40;;;7.90;;
16640;SDS011;8434;47.990;7.880;2022-09-25T08:34:48;9.73;;;6.53;;
16640;SDS011;8434;47.990;7.880;2022-09-25T08:37:33;10.63;;;7.07;;
16640;SDS011;8434;47.990;7.880;2022-09-25T08:40:19;10.93;;;7.07;;
16640;SDS011;8434;47.990;7.880;2022-09-25T08:43:08;9.40;;;6.40;;
16640;SDS011;8434;47.990;7.880;2022-09-25T08:45:55;10.37;;;6.87;;
16640;SDS011;8434;47.990;7.880;2022-09-25T08:48:59;9.03;;;6.80;;
16640;SDS011;8434;47.990;7.880;2022-09-25T08:51:48;9.63;;;7.17;;
16640;SDS011;8434;47.990;7.880;2022-09-25T08:54:35;9.10;;;6.43;;
16640;SDS011;8434;47.990;7.880;2022-09-25T08:57:22;7.70;;;6.45;;
16640;SDS011;8434;47.990;7.880;2022-09-25T09:00:12;9.13;;;6.90;;
16640;SDS011;8434;47.990;7.880;2022-09-25T09:03:01;8.07;;;6.60;;
16640;SDS011;8434;47.990;7.880;2022-09-25T09:05:46;10.00;;;7.37;;
16640;SDS011;8434;47.990;7.880;2022-09-25T09:08:35;9.13;;;7.22;;
16640;SDS011;8434;47.990;7.880;2022-09-25T09:11:21;9.57;;;7.03;;
16640;SDS011;8434;47.990;7.880;2022-09-25T09:14:10;9.40;;;6.60;;
16640;SDS011;8434;47.990;7.880;2022-09-25T09:16:58;9.13;;;7.77;;
16640;SDS011;8434;47.990;7.880;2022-09-25T09:19:49;13.13;;;9.43;;
16640;SDS011;8434;47.990;7.880;2022-09-25T09:22:36;12.57;;;9.47;;
16640;SDS011;8434;47.990;7.880;2022-09-25T09:25:26;14.33;;;9.57;;
16640;SDS011;8434;47.990;7.880;2022-09-25T09:28:19;14.23;;;9.67;;
16640;SDS011;8434;47.990;7.880;2022-09-25T09:31:08;15.30;;;10.53;;
16640;SDS011;8434;47.990;7.880;2022-09-25T09:34:14;13.67;;;9.50;;
16640;SDS011;8434;47.990;7.880;2022-09-25T09:37:06;13.47;;;9.90;;
16640;SDS011;8434;47.990;7.880;2022-09-25T09:39:57;10.77;;;8.70;;
16640;SDS011;8434;47.990;7.880;2022-09-25T09:42:47;12.37;;;8.73;;
16640;SDS011;8434;47.990;7.880;2022-09-25T09:45:38;11.87;;;8.10;;
16640;SDS011;8434;47.990;7.880;2022-09-25T09:48:28;12.27;;;8.57;;
16640;SDS011;8434;47.990;7.880;2022-09-25T09:51:17;10.07;;;8.13;;
16640;SDS011;8434;47.990;7.880;2022-09-25T09:54:04;10.83;;;7.77;;
16640;SDS011;8434;47.990;7.880;2022-09-25T09:56:50;8.03;;;6.73;;
16640;SDS011;8434;47.990;7.880;2022-09-25T09:59:39;7.50;;;6.50;;
16640;SDS011;8434;47.990;7.880;2022-09-25T10:02:28;8.40;;;7.00;;
16640;SDS011;8434;47.990;7.880;2022-09-25T10:05:14;8.27;;;6.07;;
16640;SDS011;8434;47.990;7.880;2022-09-25T10:08:02;8.50;;;6.70;;
16640;SDS011;8434;47.990;7.880;2022-09-25T10:10:48;8.80;;;6.97;;
16640;SDS011;8434;47.990;7.880;2022-09-25T10:13:36;7.55;;;6.75;;
16640;SDS011;8434;47.990;7.880;2022-09-25T10:16:21;8.20;;;6.32;;
16640;SDS011;8434;47.990;7.880;2022-09-25T10:19:09;7.97;;;6.28;;
16640;SDS011;8434;47.990;7.880;2022-09-25T10:21:56;9.57;;;6.78;;
16640;SDS011;8434;47.990;7.880;2022-09-25T10:24:48;7.88;;;5.90;;
16640;SDS011;8434;47.990;7.880;2022-09-25T10:27:35;6.57;;;5.40;;
16640;SDS011;8434;47.990;7.880;2022-09-25T10:30:20;7.40;;;6.20;;
16640;SDS011;8434;47.990;7.880;2022-09-25T10:33:07;9.68;;;6.43;;
16640;SDS011;8434;47.990;7.880;2022-09-25T10:35:55;5.60;;;5.05;;
16640;SDS011;8434;47.990;7.880;2022-09-25T10:38:43;7.68;;;5.18;;
16640;SDS011;8434;47.990;7.880;2022-09-25T10:41:32;7.47;;;4.70;;
16640;SDS011;8434;47.990;7.880;2022-09-25T10:44:27;7.95;;;6.63;;
16640;SDS011;8434;47.990;7.880;2022-09-25T10:47:26;6.43;;;5.30;;
16640;SDS011;8434;47.990;7.880;2022-09-25T10:50:29;7.43;;;5.35;;
16640;SDS011;8434;47.990;7.880;2022-09-25T10:53:24;5.13;;;4.60;;
16640;SDS011;8434;47.990;7.880;2022-09-25T10:56:13;5.85;;;4.32;;
16640;SDS011;8434;47.990;7.880;2022-09-25T10:59:00;6.30;;;4.43;;
16640;SDS011;8434;47.990;7.880;2022-09-25T11:01:46;5.55;;;4.40;;
16640;SDS011;8434;47.990;7.880;2022-09-25T11:04:32;5.68;;;4.55;;
16640;SDS011;8434;47.990;7.880;2022-09-25T11:07:18;5.65;;;4.30;;
16640;SDS011;8434;47.990;7.880;2022-09-25T11:10:16;6.07;;;4.70;;
16640;SDS011;8434;47.990;7.880;2022-09-25T11:13:05;4.25;;;3.85;;
16640;SDS011;8434;47.990;7.880;2022-09-25T11:15:53;7.68;;;4.60;;
16640;SDS011;8434;47.990;7.880;2022-09-25T11:18:40;4.82;;;3.90;;
16640;SDS011;8434;47.990;7.880;2022-09-25T11:21:27;5.23;;;4.20;;
16640;SDS011;8434;47.990;7.880;2022-09-25T11:24:16;5.28;;;3.88;;
16640;SDS011;8434;47.990;7.880;2022-09-25T11:27:04;5.85;;;4.10;;
16640;SDS011;8434;47.990;7.880;2022-09-25T11:29:53;6.07;;;4.88;;
16640;SDS011;8434;47.990;7.880;2022-09-25T11:32:44;4.30;;;3.90;;
16640;SDS011;8434;47.990;7.880;2022-09-25T11:35:35;7.28;;;4.05;;
16640;SDS011;8434;47.990;7.880;2022-09-25T11:38:26;6.13;;;3.83;;
16640;SDS011;8434;47.990;7.880;2022-09-25T11:41:28;5.03;;;4.10;;
16640;SDS011;8434;47.990;7.880;2022-09-25T11:44:17;5.80;;;3.97;;
16640;SDS011;8434;47.990;7.880;2022-09-25T11:47:05;5.07;;;3.80;;
16640;SDS011;8434;47.990;7.880;2022-09-25T11:49:53;5.57;;;4.85;;
16640;SDS011;8434;47.990;7.880;2022-09-25T11:52:43;7.37;;;4.60;;
16640;SDS011;8434;47.990;7.880;2022-09-25T11:55:43;6.27;;;4.20;;
16640;SDS011;8434;47.990;7.880;2022-09-25T11:58:34;6.63;;;4.63;;
16640;SDS011;8434;47.990;7.880;2022-09-25T12:01:25;6.50;;;4.10;;
16640;SDS011;8434;47.990;7.880;2022-09-25T12:04:22;4.43;;;3.55;;
16640;SDS011;8434;47.990;7.880;2022-09-25T12:07:24;5.37;;;4.40;;
16640;SDS011;8434;47.990;7.880;2022-09-25T12:10:13;5.80;;;4.15;;
16640;SDS011;8434;47.990;7.880;2022-09-25T12:13:01;6.20;;;4.20;;
16640;SDS011;8434;47.990;7.880;2022-09-25T12:15:54;6.10;;;4.10;;
16640;SDS011;8434;47.990;7.880;2022-09-25T12:18:46;6.87;;;4.17;;
16640;SDS011;8434;47.990;7.880;2022-09-25T12:21:36;5.23;;;3.60;;
16640;SDS011;8434;47.990;7.880;2022-09-25T12:24:31;7.17;;;4.50;;
16640;SDS011;8434;47.990;7.880;2022-09-25T12:27:20;5.43;;;4.07;;
16640;SDS011;8434;47.990;7.880;2022-09-25T12:30:10;6.32;;;4.32;;
16640;SDS011;8434;47.990;7.880;2022-09-25T12:33:10;4.87;;;3.87;;
16640;SDS011;8434;47.990;7.880;2022-09-25T12:35:58;6.33;;;4.37;;
16640;SDS011;8434;47.990;7.880;2022-09-25T12:38:48;4.63;;;3.60;;
16640;SDS011;8434;47.990;7.880;2022-09-25T12:41:40;6.47;;;3.70;;
16640;SDS011;8434;47.990;7.880;2022-09-25T12:44:37;5.10;;;3.57;;
16640;SDS011;8434;47.990;7.880;2022-09-25T12:47:25;6.67;;;4.23;;
16640;SDS011;8434;47.990;7.880;2022-09-25T12:50:17;4.20;;;3.80;;
16640;SDS011;8434;47.990;7.880;2022-09-25T12:53:04;4.00;;;3.60;;
16640;SDS011;8434;47.990;7.880;2022-09-25T12:55:55;6.27;;;3.60;;
16640;SDS011;8434;47.990;7.880;2022-09-25T12:58:44;6.03;;;4.13;;
16640;SDS011;8434;47.990;7.880;2022-09-25T13:01:32;5.63;;;3.90;;
16640;SDS011;8434;47.990;7.880;2022-09-25T13:04:23;4.30;;;3.73;;
16640;SDS011;8434;47.990;7.880;2022-09-25T13:07:21;4.20;;;3.70;;
16640;SDS011;8434;47.990;7.880;2022-09-25T13:10:16;5.27;;;3.50;;
16640;SDS011;8434;47.990;7.880;2022-09-25T13:13:03;6.00;;;3.53;;
16640;SDS011;8434;47.990;7.880;2022-09-25T13:15:51;6.40;;;4.00;;
16640;SDS011;8434;47.990;7.880;2022-09-25T13:18:37;5.40;;;4.20;;
16640;SDS011;8434;47.990;7.880;2022-09-25T13:21:23;7.10;;;4.63;;
16640;SDS011;8434;47.990;7.880;2022-09-25T13:24:11;8.23;;;4.70;;
16640;SDS011;8434;47.990;7.880;2022-09-25T13:26:57;8.77;;;4.90;;
16640;SDS011;8434;47.990;7.880;2022-09-25T13:29:53;5.63;;;4.63;;
16640;SDS011;8434;47.990;7.880;2022-09-25T13:32:40;5.50;;;4.87;;
16640;SDS011;8434;47.990;7.880;2022-09-25T13:35:31;7.47;;;4.87;;
16640;SDS011;8434;47.990;7.880;2022-09-25T13:38:17;7.53;;;4.90;;
16640;SDS011;8434;47.990;7.880;2022-09-25T13:41:22;6.50;;;4.97;;
16640;SDS011;8434;47.990;7.880;2022-09-25T13:50:22;8.80;;;5.50;;
16640;SDS011;8434;47.990;7.880;2022-09-25T13:56:14;9.13;;;4.90;;
16640;SDS011;8434;47.990;7.880;2022-09-25T14:05:16;8.57;;;6.30;;
16640;SDS011;8434;47.990;7.880;2022-09-25T14:08:06;7.37;;;6.23;;
16640;SDS011;8434;47.990;7.880;2022-09-25T14:10:53;7.77;;;6.73;;
16640;SDS011;8434;47.990;7.880;2022-09-25T14:13:39;8.57;;;6.17;;
16640;SDS011;8434;47.990;7.880;2022-09-25T14:16:29;8.90;;;5.87;;
16640;SDS011;8434;47.990;7.880;2022-09-25T14:19:15;8.33;;;5.93;;
16640;SDS011;8434;47.990;7.880;2022-09-25T14:22:01;7.43;;;5.67;;
16640;SDS011;8434;47.990;7.880;2022-09-25T14:24:48;6.90;;;6.17;;
16640;SDS011;8434;47.990;7.880;2022-09-25T14:27:33;9.27;;;5.40;;
16640;SDS011;8434;47.990;7.880;2022-09-25T14:30:18;6.10;;;5.50;;
16640;SDS011;8434;47.990;7.880;2022-09-25T14:36:08;6.83;;;5.00;;
16640;SDS011;8434;47.990;7.880;2022-09-25T14:42:18;6.63;;;4.90;;
16640;SDS011;8434;47.990;7.880;2022-09-25T14:48:12;4.93;;;4.27;;
16640;SDS011;8434;47.990;7.880;2022-09-25T14:50:58;4.97;;;4.07;;
16640;SDS011;8434;47.990;7.880;2022-09-25T14:53:46;5.40;;;4.03;;
16640;SDS011;8434;47.990;7.880;2022-09-25T14:56:33;3.70;;;3.40;;
16640;SDS011;8434;47.990;7.880;2022-09-25T14:59:24;4.17;;;3.20;;
16640;SDS011;8434;47.990;7.880;2022-09-25T15:02:12;3.87;;;3.10;;
16640;SDS011;8434;47.990;7.880;2022-09-25T15:08:11;4.07;;;2.90;;
16640;SDS011;8434;47.990;7.880;2022-09-25T15:11:07;4.13;;;3.13;;
16640;SDS011;8434;47.990;7.880;2022-09-25T15:13:52;3.67;;;2.83;;
16640;SDS011;8434;47.990;7.880;2022-09-25T15:16:39;4.73;;;3.43;;
16640;SDS011;8434;47.990;7.880;2022-09-25T15:19:43;3.33;;;3.03;;
16640;SDS011;8434;47.990;7.880;2022-09-25T15:22:30;4.47;;;3.10;;
16640;SDS011;8434;47.990;7.880;2022-09-25T15:25:18;3.10;;;2.80;;
16640;SDS011;8434;47.990;7.880;2022-09-25T15:28:04;3.60;;;3.10;;
16640;SDS011;8434;47.990;7.880;2022-09-25T15:30:54;3.50;;;3.20;;
16640;SDS011;8434;47.990;7.880;2022-09-25T15:33:41;3.37;;;2.90;;
16640;SDS011;8434;47.990;7.880;2022-09-25T15:36:26;7.20;;;5.47;;
16640;SDS011;8434;47.990;7.880;2022-09-25T15:39:13;6.30;;;5.37;;
16640;SDS011;8434;47.990;7.880;2022-09-25T15:41:59;6.00;;;5.10;;
16640;SDS011;8434;47.990;7.880;2022-09-25T15:44:44;6.80;;;4.67;;
16640;SDS011;8434;47.990;7.880;2022-09-25T15:47:49;5.97;;;4.77;;
16640;SDS011;8434;47.990;7.880;2022-09-25T15:50:36;4.13;;;3.70;;
16640;SDS011;8434;47.990;7.880;2022-09-25T15:53:28;4.33;;;3.60;;
16640;SDS011;8434;47.990;7.880;2022-09-25T15:56:15;5.47;;;3.13;;
16640;SDS011;8434;47.990;7.880;2022-09-25T15:59:01;6.47;;;3.17;;
16640;SDS011;8434;47.990;7.880;2022-09-25T16:01:48;3.83;;;3.47;;
16640;SDS011;8434;47.990;7.880;2022-09-25T16:04:51;4.63;;;3.67;;
16640;SDS011;8434;47.990;7.880;2022-09-25T16:07:38;3.83;;;3.43;;
16640;SDS011;8434;47.990;7.880;2022-09-25T16:10:28;4.93;;;3.30;;
16640;SDS011;8434;47.990;7.880;2022-09-25T16:13:20;4.90;;;3.80;;
16640;SDS011;8434;47.990;7.880;2022-09-25T16:16:06;4.23;;;3.30;;
16640;SDS011;8434;47.990;7.880;2022-09-25T16:19:18;5.50;;;3.83;;
16640;SDS011;8434;47.990;7.880;2022-09-25T16:22:11;4.77;;;4.13;;
16640;SDS011;8434;47.990;7.880;2022-09-25T16:25:00;5.17;;;4.10;;
16640;SDS011;8434;47.990;7.880;2022-09-25T16:27:46;4.63;;;3.70;;
16640;SDS011;8434;47.990;7.880;2022-09-25T16:30:31;5.77;;;4.33;;
16640;SDS011;8434;47.990;7.880;2022-09-25T16:33:20;5.00;;;4.00;;
16640;SDS011;8434;47.990;7.880;2022-09-25T16:36:06;4.73;;;4.03;;
16640;SDS011;8434;47.990;7.880;2022-09-25T16:39:02;5.63;;;4.57;;
16640;SDS011;8434;47.990;7.880;2022-09-25T16:41:49;7.43;;;4.93;;
16640;SDS011;8434;47.990;7.880;2022-09-25T16:44:36;7.10;;;5.40;;
16640;SDS011;8434;47.990;7.880;2022-09-25T16:47:22;5.10;;;4.60;;
16640;SDS011;8434;47.990;7.880;2022-09-25T16:50:13;6.23;;;4.67;;
16640;SDS011;8434;47.990;7.880;2022-09-25T16:52:58;5.30;;;4.57;;
16640;SDS011;8434;47.990;7.880;2022-09-25T16:55:46;4.97;;;4.10;;
16640;SDS011;8434;47.990;7.880;2022-09-25T16:58:37;5.00;;;4.40;;
16640;SDS011;8434;47.990;7.880;2022-09-25T17:01:23;4.50;;;4.10;;
16640;SDS011;8434;47.990;7.880;2022-09-25T17:04:09;5.07;;;4.57;;
16640;SDS011;8434;47.990;7.880;2022-09-25T17:06:55;4.63;;;4.20;;
16640;SDS011;8434;47.990;7.880;2022-09-25T17:09:41;5.20;;;4.70;;
16640;SDS011;8434;47.990;7.880;2022-09-25T17:12:26;7.33;;;4.60;;
16640;SDS011;8434;47.990;7.880;2022-09-25T17:15:16;6.13;;;5.10;;
16640;SDS011;8434;47.990;7.880;2022-09-25T17:18:05;6.30;;;4.70;;
16640;SDS011;8434;47.990;7.880;2022-09-25T17:20:51;5.67;;;4.90;;
16640;SDS011;8434;47.990;7.880;2022-09-25T17:23:36;7.70;;;5.40;;
16640;SDS011;8434;47.990;7.880;2022-09-25T17:26:23;8.90;;;6.20;;
16640;SDS011;8434;47.990;7.880;2022-09-25T17:29:08;7.77;;;6.13;;
16640;SDS011;8434;47.990;7.880;2022-09-25T17:31:55;8.17;;;6.37;;
16640;SDS011;8434;47.990;7.880;2022-09-25T17:34:42;10.03;;;5.93;;
16640;SDS011;8434;47.990;7.880;2022-09-25T17:37:27;8.20;;;5.80;;
16640;SDS011;8434;47.990;7.880;2022-09-25T17:40:12;6.60;;;5.37;;